sensor_id;sensor_type;location;lat;lon;timestamp;P1;durP1;ratioP1;P2;durP2;ratioP2
19396;SDS011;9834;48.076;11.878;2022-12-18T00:00:42;39.57;;;18.57;;
19396;SDS011;9834;48.076;11.878;2022-12-18T00:03:12;34.23;;;18.00;;
19396;SDS011;9834;48.076;11.878;2022-12-18T00:05:46;39.10;;;19.53;;
19396;SDS011;9834;48.076;11.878;2022-12-18T00:08:14;40.23;;;19.17;;
19396;SDS011;9834;48.076;11.878;2022-12-18T00:10:41;40.47;;;19.40;;
19396;SDS011;9834;48.076;11.878;2022-12-18T00:13:09;46.67;;;20.33;;
19396;SDS011;9834;48.076;11.878;2022-12-18T00:15:37;49.97;;;21.97;;
19396;SDS011;9834;48.076;11.878;2022-12-18T00:18:05;45.87;;;20.73;;
19396;SDS011;9834;48.076;11.878;2022-12-18T00:20:35;41.60;;;19.63;;
19396;SDS011;9834;48.076;11.878;2022-12-18T00:23:04;45.53;;;21.47;;
19396;SDS011;9834;48.076;11.878;2022-12-18T00:25:32;45.63;;;20.80;;
19396;SDS011;9834;48.076;11.878;2022-12-18T00:28:00;55.23;;;22.37;;
19396;SDS011;9834;48.076;11.878;2022-12-18T00:30:27;49.90;;;21.90;;
19396;SDS011;9834;48.076;11.878;2022-12-18T00:32:54;54.13;;;24.40;;
19396;SDS011;9834;48.076;11.878;2022-12-18T00:35:22;44.13;;;20.87;;
19396;SDS011;9834;48.076;11.878;2022-12-18T00:37:48;55.97;;;23.50;;
19396;SDS011;9834;48.076;11.878;2022-12-18T00:40:17;54.27;;;23.10;;
19396;SDS011;9834;48.076;11.878;2022-12-18T00:42:44;40.07;;;20.13;;
19396;SDS011;9834;48.076;11.878;2022-12-18T00:45:22;43.60;;;22.90;;
19396;SDS011;9834;48.076;11.878;2022-12-18T00:47:49;49.50;;;23.00;;
19396;SDS011;9834;48.076;11.878;2022-12-18T00:50:16;52.43;;;22.80;;
19396;SDS011;9834;48.076;11.878;2022-12-18T00:52:44;53.93;;;21.87;;
19396;SDS011;9834;48.076;11.878;2022-12-18T00:55:11;52.73;;;23.70;;
19396;SDS011;9834;48.076;11.878;2022-12-18T00:57:40;43.30;;;19.73;;
19396;SDS011;9834;48.076;11.878;2022-12-18T01:00:09;43.83;;;21.50;;
19396;SDS011;9834;48.076;11.878;2022-12-18T01:02:38;42.40;;;19.77;;
19396;SDS011;9834;48.076;11.878;2022-12-18T01:05:06;44.10;;;21.60;;
19396;SDS011;9834;48.076;11.878;2022-12-18T01:07:33;48.63;;;20.53;;
19396;SDS011;9834;48.076;11.878;2022-12-18T01:10:00;57.77;;;22.97;;
19396;SDS011;9834;48.076;11.878;2022-12-18T01:12:27;56.83;;;25.30;;
19396;SDS011;9834;48.076;11.878;2022-12-18T01:14:56;41.57;;;22.27;;
19396;SDS011;9834;48.076;11.878;2022-12-18T01:17:23;46.13;;;21.17;;
19396;SDS011;9834;48.076;11.878;2022-12-18T01:19:50;47.33;;;21.47;;
19396;SDS011;9834;48.076;11.878;2022-12-18T01:22:17;52.03;;;21.97;;
19396;SDS011;9834;48.076;11.878;2022-12-18T01:24:44;48.47;;;21.93;;
19396;SDS011;9834;48.076;11.878;2022-12-18T01:27:11;54.40;;;21.87;;
19396;SDS011;9834;48.076;11.878;2022-12-18T01:29:38;52.63;;;23.17;;
19396;SDS011;9834;48.076;11.878;2022-12-18T01:32:09;47.83;;;19.73;;
19396;SDS011;9834;48.076;11.878;2022-12-18T01:34:36;49.37;;;22.17;;
19396;SDS011;9834;48.076;11.878;2022-12-18T01:37:03;44.47;;;22.40;;
19396;SDS011;9834;48.076;11.878;2022-12-18T01:39:31;48.83;;;20.37;;
19396;SDS011;9834;48.076;11.878;2022-12-18T01:41:58;46.60;;;20.47;;
19396;SDS011;9834;48.076;11.878;2022-12-18T01:47:38;41.83;;;19.60;;
19396;SDS011;9834;48.076;11.878;2022-12-18T01:50:10;41.37;;;20.63;;
19396;SDS011;9834;48.076;11.878;2022-12-18T01:52:39;39.90;;;20.07;;
19396;SDS011;9834;48.076;11.878;2022-12-18T01:55:08;41.23;;;19.33;;
19396;SDS011;9834;48.076;11.878;2022-12-18T01:57:37;41.77;;;20.97;;
19396;SDS011;9834;48.076;11.878;2022-12-18T02:00:07;51.90;;;20.13;;
19396;SDS011;9834;48.076;11.878;2022-12-18T02:02:35;43.20;;;20.50;;
19396;SDS011;9834;48.076;11.878;2022-12-18T02:05:05;39.73;;;19.93;;
19396;SDS011;9834;48.076;11.878;2022-12-18T02:07:37;51.73;;;21.07;;
19396;SDS011;9834;48.076;11.878;2022-12-18T02:10:10;44.27;;;20.53;;
19396;SDS011;9834;48.076;11.878;2022-12-18T02:12:45;45.97;;;21.13;;
19396;SDS011;9834;48.076;11.878;2022-12-18T02:15:19;52.00;;;20.60;;
19396;SDS011;9834;48.076;11.878;2022-12-18T02:17:56;38.17;;;18.40;;
19396;SDS011;9834;48.076;11.878;2022-12-18T02:20:31;55.07;;;21.33;;
19396;SDS011;9834;48.076;11.878;2022-12-18T02:23:04;41.13;;;18.90;;
19396;SDS011;9834;48.076;11.878;2022-12-18T02:25:42;40.00;;;19.60;;
19396;SDS011;9834;48.076;11.878;2022-12-18T02:28:41;35.30;;;17.50;;
19396;SDS011;9834;48.076;11.878;2022-12-18T02:31:11;41.07;;;19.10;;
19396;SDS011;9834;48.076;11.878;2022-12-18T02:33:43;49.30;;;21.23;;
19396;SDS011;9834;48.076;11.878;2022-12-18T02:36:11;43.53;;;18.80;;
19396;SDS011;9834;48.076;11.878;2022-12-18T02:38:40;41.23;;;18.60;;
19396;SDS011;9834;48.076;11.878;2022-12-18T02:41:10;40.07;;;18.97;;
19396;SDS011;9834;48.076;11.878;2022-12-18T02:43:39;43.20;;;17.83;;
19396;SDS011;9834;48.076;11.878;2022-12-18T02:46:23;44.37;;;19.00;;
19396;SDS011;9834;48.076;11.878;2022-12-18T02:49:06;39.17;;;19.93;;
19396;SDS011;9834;48.076;11.878;2022-12-18T02:51:39;35.00;;;18.47;;
19396;SDS011;9834;48.076;11.878;2022-12-18T02:54:18;39.97;;;17.70;;
19396;SDS011;9834;48.076;11.878;2022-12-18T02:56:55;37.83;;;16.93;;
19396;SDS011;9834;48.076;11.878;2022-12-18T02:59:29;38.03;;;18.53;;
19396;SDS011;9834;48.076;11.878;2022-12-18T03:02:02;40.97;;;19.00;;
19396;SDS011;9834;48.076;11.878;2022-12-18T03:04:34;52.67;;;19.57;;
19396;SDS011;9834;48.076;11.878;2022-12-18T03:07:08;45.83;;;18.90;;
19396;SDS011;9834;48.076;11.878;2022-12-18T03:09:39;37.63;;;19.37;;
19396;SDS011;9834;48.076;11.878;2022-12-18T03:12:14;34.67;;;17.30;;
19396;SDS011;9834;48.076;11.878;2022-12-18T03:14:50;40.10;;;19.17;;
19396;SDS011;9834;48.076;11.878;2022-12-18T03:17:22;42.73;;;19.60;;
19396;SDS011;9834;48.076;11.878;2022-12-18T03:19:53;47.47;;;20.20;;
19396;SDS011;9834;48.076;11.878;2022-12-18T03:22:24;37.53;;;18.27;;
19396;SDS011;9834;48.076;11.878;2022-12-18T03:24:56;41.33;;;19.03;;
19396;SDS011;9834;48.076;11.878;2022-12-18T03:27:27;33.83;;;17.70;;
19396;SDS011;9834;48.076;11.878;2022-12-18T03:29:59;38.53;;;18.97;;
19396;SDS011;9834;48.076;11.878;2022-12-18T03:32:33;39.67;;;19.23;;
19396;SDS011;9834;48.076;11.878;2022-12-18T03:35:05;43.33;;;20.67;;
19396;SDS011;9834;48.076;11.878;2022-12-18T03:37:33;49.63;;;19.77;;
19396;SDS011;9834;48.076;11.878;2022-12-18T03:40:00;37.13;;;18.77;;
19396;SDS011;9834;48.076;11.878;2022-12-18T03:42:29;36.17;;;19.50;;
19396;SDS011;9834;48.076;11.878;2022-12-18T03:45:03;40.60;;;19.47;;
19396;SDS011;9834;48.076;11.878;2022-12-18T03:47:36;38.00;;;18.00;;
19396;SDS011;9834;48.076;11.878;2022-12-18T03:50:10;44.30;;;19.20;;
19396;SDS011;9834;48.076;11.878;2022-12-18T03:52:41;43.50;;;19.83;;
19396;SDS011;9834;48.076;11.878;2022-12-18T03:55:15;43.13;;;20.40;;
19396;SDS011;9834;48.076;11.878;2022-12-18T03:57:45;41.83;;;17.93;;
19396;SDS011;9834;48.076;11.878;2022-12-18T04:00:15;38.03;;;19.03;;
19396;SDS011;9834;48.076;11.878;2022-12-18T04:02:44;35.40;;;18.83;;
19396;SDS011;9834;48.076;11.878;2022-12-18T04:05:14;37.30;;;18.33;;
19396;SDS011;9834;48.076;11.878;2022-12-18T04:07:43;44.10;;;18.23;;
19396;SDS011;9834;48.076;11.878;2022-12-18T04:10:12;45.87;;;18.23;;
19396;SDS011;9834;48.076;11.878;2022-12-18T04:12:42;44.53;;;19.97;;
19396;SDS011;9834;48.076;11.878;2022-12-18T04:15:10;38.90;;;17.63;;
19396;SDS011;9834;48.076;11.878;2022-12-18T04:17:38;44.23;;;18.40;;
19396;SDS011;9834;48.076;11.878;2022-12-18T04:20:09;43.37;;;18.33;;
19396;SDS011;9834;48.076;11.878;2022-12-18T04:22:37;33.63;;;18.20;;
19396;SDS011;9834;48.076;11.878;2022-12-18T04:25:04;38.67;;;17.80;;
19396;SDS011;9834;48.076;11.878;2022-12-18T04:27:31;36.17;;;18.77;;
19396;SDS011;9834;48.076;11.878;2022-12-18T04:29:58;38.87;;;18.00;;
19396;SDS011;9834;48.076;11.878;2022-12-18T04:32:27;38.53;;;17.73;;
19396;SDS011;9834;48.076;11.878;2022-12-18T04:34:54;31.87;;;16.50;;
19396;SDS011;9834;48.076;11.878;2022-12-18T04:37:21;38.70;;;17.63;;
19396;SDS011;9834;48.076;11.878;2022-12-18T04:39:48;40.97;;;18.07;;
19396;SDS011;9834;48.076;11.878;2022-12-18T04:42:15;35.33;;;17.80;;
19396;SDS011;9834;48.076;11.878;2022-12-18T04:44:42;36.27;;;18.17;;
19396;SDS011;9834;48.076;11.878;2022-12-18T04:47:09;45.13;;;19.13;;
19396;SDS011;9834;48.076;11.878;2022-12-18T04:49:38;44.27;;;18.00;;
19396;SDS011;9834;48.076;11.878;2022-12-18T04:52:05;43.63;;;19.10;;
19396;SDS011;9834;48.076;11.878;2022-12-18T04:54:32;40.03;;;17.70;;
19396;SDS011;9834;48.076;11.878;2022-12-18T04:56:59;36.27;;;16.73;;
19396;SDS011;9834;48.076;11.878;2022-12-18T04:59:26;37.53;;;17.40;;
19396;SDS011;9834;48.076;11.878;2022-12-18T05:01:53;43.27;;;18.40;;
19396;SDS011;9834;48.076;11.878;2022-12-18T05:04:20;31.40;;;15.80;;
19396;SDS011;9834;48.076;11.878;2022-12-18T05:06:48;34.80;;;16.53;;
19396;SDS011;9834;48.076;11.878;2022-12-18T05:09:15;40.50;;;15.60;;
19396;SDS011;9834;48.076;11.878;2022-12-18T05:11:42;34.27;;;15.87;;
19396;SDS011;9834;48.076;11.878;2022-12-18T05:14:09;31.53;;;15.67;;
19396;SDS011;9834;48.076;11.878;2022-12-18T05:16:36;33.60;;;16.97;;
19396;SDS011;9834;48.076;11.878;2022-12-18T05:19:03;31.23;;;16.17;;
19396;SDS011;9834;48.076;11.878;2022-12-18T05:21:30;37.37;;;16.33;;
19396;SDS011;9834;48.076;11.878;2022-12-18T05:23:58;32.30;;;15.23;;
19396;SDS011;9834;48.076;11.878;2022-12-18T05:26:25;27.93;;;15.00;;
19396;SDS011;9834;48.076;11.878;2022-12-18T05:28:53;33.03;;;14.93;;
19396;SDS011;9834;48.076;11.878;2022-12-18T05:31:19;30.97;;;15.53;;
19396;SDS011;9834;48.076;11.878;2022-12-18T05:33:47;30.37;;;16.23;;
19396;SDS011;9834;48.076;11.878;2022-12-18T05:36:15;35.93;;;15.13;;
19396;SDS011;9834;48.076;11.878;2022-12-18T05:38:42;34.50;;;15.47;;
19396;SDS011;9834;48.076;11.878;2022-12-18T05:41:11;29.17;;;15.27;;
19396;SDS011;9834;48.076;11.878;2022-12-18T05:43:38;26.00;;;13.63;;
19396;SDS011;9834;48.076;11.878;2022-12-18T05:46:07;36.40;;;15.37;;
19396;SDS011;9834;48.076;11.878;2022-12-18T05:48:37;36.03;;;16.17;;
19396;SDS011;9834;48.076;11.878;2022-12-18T05:51:05;38.10;;;16.60;;
19396;SDS011;9834;48.076;11.878;2022-12-18T05:53:33;28.67;;;14.33;;
19396;SDS011;9834;48.076;11.878;2022-12-18T05:56:02;39.10;;;15.13;;
19396;SDS011;9834;48.076;11.878;2022-12-18T05:58:31;31.33;;;15.30;;
19396;SDS011;9834;48.076;11.878;2022-12-18T06:01:05;27.70;;;13.53;;
19396;SDS011;9834;48.076;11.878;2022-12-18T06:03:34;38.77;;;15.40;;
19396;SDS011;9834;48.076;11.878;2022-12-18T06:06:01;34.43;;;17.10;;
19396;SDS011;9834;48.076;11.878;2022-12-18T06:08:28;36.30;;;16.40;;
19396;SDS011;9834;48.076;11.878;2022-12-18T06:10:55;38.70;;;14.37;;
19396;SDS011;9834;48.076;11.878;2022-12-18T06:13:22;33.47;;;16.30;;
19396;SDS011;9834;48.076;11.878;2022-12-18T06:15:50;30.37;;;15.27;;
19396;SDS011;9834;48.076;11.878;2022-12-18T06:18:18;32.47;;;15.37;;
19396;SDS011;9834;48.076;11.878;2022-12-18T06:20:44;32.87;;;15.90;;
19396;SDS011;9834;48.076;11.878;2022-12-18T06:23:11;27.50;;;15.10;;
19396;SDS011;9834;48.076;11.878;2022-12-18T06:25:38;27.77;;;14.90;;
19396;SDS011;9834;48.076;11.878;2022-12-18T06:28:06;37.20;;;15.80;;
19396;SDS011;9834;48.076;11.878;2022-12-18T06:30:32;31.60;;;15.20;;
19396;SDS011;9834;48.076;11.878;2022-12-18T06:33:02;35.87;;;15.80;;
19396;SDS011;9834;48.076;11.878;2022-12-18T06:35:29;35.30;;;16.43;;
19396;SDS011;9834;48.076;11.878;2022-12-18T06:37:58;41.93;;;15.17;;
19396;SDS011;9834;48.076;11.878;2022-12-18T06:40:27;32.73;;;14.83;;
19396;SDS011;9834;48.076;11.878;2022-12-18T06:42:54;37.03;;;15.63;;
19396;SDS011;9834;48.076;11.878;2022-12-18T06:45:20;30.07;;;15.47;;
19396;SDS011;9834;48.076;11.878;2022-12-18T06:47:48;36.73;;;16.70;;
19396;SDS011;9834;48.076;11.878;2022-12-18T06:50:16;35.10;;;15.10;;
19396;SDS011;9834;48.076;11.878;2022-12-18T06:52:43;36.83;;;15.37;;
19396;SDS011;9834;48.076;11.878;2022-12-18T06:55:10;33.00;;;15.63;;
19396;SDS011;9834;48.076;11.878;2022-12-18T06:57:38;32.30;;;15.37;;
19396;SDS011;9834;48.076;11.878;2022-12-18T07:00:05;32.67;;;16.83;;
19396;SDS011;9834;48.076;11.878;2022-12-18T07:02:33;37.87;;;16.03;;
19396;SDS011;9834;48.076;11.878;2022-12-18T07:05:00;29.03;;;14.03;;
19396;SDS011;9834;48.076;11.878;2022-12-18T07:07:29;29.60;;;14.80;;
19396;SDS011;9834;48.076;11.878;2022-12-18T07:09:56;33.13;;;14.80;;
19396;SDS011;9834;48.076;11.878;2022-12-18T07:12:23;32.10;;;16.57;;
19396;SDS011;9834;48.076;11.878;2022-12-18T07:14:50;27.17;;;13.83;;
19396;SDS011;9834;48.076;11.878;2022-12-18T07:17:17;41.27;;;17.00;;
19396;SDS011;9834;48.076;11.878;2022-12-18T07:19:44;29.47;;;15.80;;
19396;SDS011;9834;48.076;11.878;2022-12-18T07:22:11;26.80;;;13.57;;
19396;SDS011;9834;48.076;11.878;2022-12-18T07:24:39;35.50;;;14.30;;
19396;SDS011;9834;48.076;11.878;2022-12-18T07:27:06;33.87;;;16.87;;
19396;SDS011;9834;48.076;11.878;2022-12-18T07:29:33;33.07;;;14.33;;
19396;SDS011;9834;48.076;11.878;2022-12-18T07:32:00;30.70;;;13.00;;
19396;SDS011;9834;48.076;11.878;2022-12-18T07:34:27;25.47;;;13.77;;
19396;SDS011;9834;48.076;11.878;2022-12-18T07:36:54;31.30;;;14.13;;
19396;SDS011;9834;48.076;11.878;2022-12-18T07:39:21;34.57;;;16.90;;
19396;SDS011;9834;48.076;11.878;2022-12-18T07:41:51;29.37;;;12.90;;
19396;SDS011;9834;48.076;11.878;2022-12-18T07:44:32;27.17;;;13.20;;
19396;SDS011;9834;48.076;11.878;2022-12-18T07:46:59;30.80;;;14.93;;
19396;SDS011;9834;48.076;11.878;2022-12-18T07:49:26;32.90;;;14.90;;
19396;SDS011;9834;48.076;11.878;2022-12-18T07:51:54;29.20;;;14.07;;
19396;SDS011;9834;48.076;11.878;2022-12-18T07:54:21;34.83;;;14.73;;
19396;SDS011;9834;48.076;11.878;2022-12-18T07:56:49;31.33;;;13.53;;
19396;SDS011;9834;48.076;11.878;2022-12-18T07:59:17;23.77;;;13.07;;
19396;SDS011;9834;48.076;11.878;2022-12-18T08:01:44;25.80;;;13.70;;
19396;SDS011;9834;48.076;11.878;2022-12-18T08:04:11;33.27;;;15.20;;
19396;SDS011;9834;48.076;11.878;2022-12-18T08:06:38;26.73;;;13.27;;
19396;SDS011;9834;48.076;11.878;2022-12-18T08:09:06;29.43;;;13.10;;
19396;SDS011;9834;48.076;11.878;2022-12-18T08:11:34;29.53;;;13.47;;
19396;SDS011;9834;48.076;11.878;2022-12-18T08:14:00;23.97;;;13.03;;
19396;SDS011;9834;48.076;11.878;2022-12-18T08:16:29;23.93;;;12.77;;
19396;SDS011;9834;48.076;11.878;2022-12-18T08:18:56;31.80;;;13.47;;
19396;SDS011;9834;48.076;11.878;2022-12-18T08:21:24;22.87;;;12.03;;
19396;SDS011;9834;48.076;11.878;2022-12-18T08:23:52;29.93;;;13.63;;
19396;SDS011;9834;48.076;11.878;2022-12-18T08:26:21;29.73;;;14.03;;
19396;SDS011;9834;48.076;11.878;2022-12-18T08:28:49;24.43;;;13.30;;
19396;SDS011;9834;48.076;11.878;2022-12-18T08:31:16;27.93;;;13.90;;
19396;SDS011;9834;48.076;11.878;2022-12-18T08:33:45;29.33;;;13.40;;
19396;SDS011;9834;48.076;11.878;2022-12-18T08:36:15;25.97;;;12.47;;
19396;SDS011;9834;48.076;11.878;2022-12-18T08:38:42;26.43;;;13.43;;
19396;SDS011;9834;48.076;11.878;2022-12-18T08:41:10;29.20;;;13.03;;
19396;SDS011;9834;48.076;11.878;2022-12-18T08:43:38;28.67;;;13.63;;
19396;SDS011;9834;48.076;11.878;2022-12-18T08:46:23;23.23;;;12.37;;
19396;SDS011;9834;48.076;11.878;2022-12-18T08:48:53;23.73;;;12.07;;
19396;SDS011;9834;48.076;11.878;2022-12-18T08:51:21;23.70;;;13.17;;
19396;SDS011;9834;48.076;11.878;2022-12-18T08:53:48;30.90;;;12.63;;
19396;SDS011;9834;48.076;11.878;2022-12-18T08:56:15;25.63;;;13.20;;
19396;SDS011;9834;48.076;11.878;2022-12-18T08:58:42;26.53;;;11.33;;
19396;SDS011;9834;48.076;11.878;2022-12-18T09:01:10;26.30;;;12.63;;
19396;SDS011;9834;48.076;11.878;2022-12-18T09:03:38;20.97;;;10.33;;
19396;SDS011;9834;48.076;11.878;2022-12-18T09:06:07;24.57;;;11.10;;
19396;SDS011;9834;48.076;11.878;2022-12-18T09:08:34;21.03;;;10.83;;
19396;SDS011;9834;48.076;11.878;2022-12-18T09:11:02;17.40;;;10.67;;
19396;SDS011;9834;48.076;11.878;2022-12-18T09:13:29;25.50;;;11.20;;
19396;SDS011;9834;48.076;11.878;2022-12-18T09:15:58;25.83;;;12.10;;
19396;SDS011;9834;48.076;11.878;2022-12-18T09:18:25;28.03;;;11.97;;
19396;SDS011;9834;48.076;11.878;2022-12-18T09:20:52;21.07;;;11.70;;
19396;SDS011;9834;48.076;11.878;2022-12-18T09:23:21;22.57;;;11.17;;
19396;SDS011;9834;48.076;11.878;2022-12-18T09:25:49;22.87;;;11.37;;
19396;SDS011;9834;48.076;11.878;2022-12-18T09:28:16;23.40;;;11.97;;
19396;SDS011;9834;48.076;11.878;2022-12-18T09:30:45;22.27;;;12.00;;
19396;SDS011;9834;48.076;11.878;2022-12-18T09:33:13;22.97;;;12.40;;
19396;SDS011;9834;48.076;11.878;2022-12-18T09:35:41;25.33;;;11.60;;
19396;SDS011;9834;48.076;11.878;2022-12-18T09:38:11;27.47;;;12.00;;
19396;SDS011;9834;48.076;11.878;2022-12-18T09:40:41;23.87;;;12.10;;
19396;SDS011;9834;48.076;11.878;2022-12-18T09:43:13;22.37;;;11.97;;
19396;SDS011;9834;48.076;11.878;2022-12-18T09:45:45;26.70;;;11.43;;
19396;SDS011;9834;48.076;11.878;2022-12-18T09:48:18;20.87;;;10.57;;
19396;SDS011;9834;48.076;11.878;2022-12-18T09:50:49;24.90;;;10.90;;
19396;SDS011;9834;48.076;11.878;2022-12-18T09:53:19;22.07;;;11.37;;
19396;SDS011;9834;48.076;11.878;2022-12-18T09:55:50;20.13;;;11.33;;
19396;SDS011;9834;48.076;11.878;2022-12-18T09:58:20;22.70;;;11.73;;
19396;SDS011;9834;48.076;11.878;2022-12-18T10:00:54;19.47;;;10.60;;
19396;SDS011;9834;48.076;11.878;2022-12-18T10:03:22;25.67;;;10.90;;
19396;SDS011;9834;48.076;11.878;2022-12-18T10:05:52;19.13;;;10.07;;
19396;SDS011;9834;48.076;11.878;2022-12-18T10:08:30;21.87;;;10.57;;
19396;SDS011;9834;48.076;11.878;2022-12-18T10:11:15;18.27;;;10.27;;
19396;SDS011;9834;48.076;11.878;2022-12-18T10:13:51;19.60;;;11.17;;
19396;SDS011;9834;48.076;11.878;2022-12-18T10:16:25;25.37;;;10.80;;
19396;SDS011;9834;48.076;11.878;2022-12-18T10:19:00;23.20;;;10.70;;
19396;SDS011;9834;48.076;11.878;2022-12-18T10:21:38;23.90;;;10.63;;
19396;SDS011;9834;48.076;11.878;2022-12-18T10:24:13;23.33;;;10.97;;
19396;SDS011;9834;48.076;11.878;2022-12-18T10:26:47;22.20;;;11.53;;
19396;SDS011;9834;48.076;11.878;2022-12-18T10:29:14;21.73;;;11.27;;
19396;SDS011;9834;48.076;11.878;2022-12-18T10:31:42;24.13;;;11.97;;
19396;SDS011;9834;48.076;11.878;2022-12-18T10:34:09;22.70;;;11.73;;
19396;SDS011;9834;48.076;11.878;2022-12-18T10:36:41;20.00;;;10.53;;
19396;SDS011;9834;48.076;11.878;2022-12-18T10:39:15;21.07;;;10.53;;
19396;SDS011;9834;48.076;11.878;2022-12-18T10:41:44;24.10;;;11.20;;
19396;SDS011;9834;48.076;11.878;2022-12-18T10:44:15;21.80;;;11.53;;
19396;SDS011;9834;48.076;11.878;2022-12-18T10:46:44;20.73;;;10.37;;
19396;SDS011;9834;48.076;11.878;2022-12-18T10:49:18;21.40;;;11.10;;
19396;SDS011;9834;48.076;11.878;2022-12-18T10:51:48;22.07;;;10.93;;
19396;SDS011;9834;48.076;11.878;2022-12-18T10:54:16;21.60;;;11.50;;
19396;SDS011;9834;48.076;11.878;2022-12-18T10:56:45;20.80;;;10.47;;
19396;SDS011;9834;48.076;11.878;2022-12-18T10:59:14;23.33;;;11.27;;
19396;SDS011;9834;48.076;11.878;2022-12-18T11:01:47;18.23;;;10.30;;
19396;SDS011;9834;48.076;11.878;2022-12-18T11:04:17;22.73;;;12.00;;
19396;SDS011;9834;48.076;11.878;2022-12-18T11:06:53;20.60;;;10.43;;
19396;SDS011;9834;48.076;11.878;2022-12-18T11:09:23;24.17;;;11.50;;
19396;SDS011;9834;48.076;11.878;2022-12-18T11:11:51;23.80;;;11.47;;
19396;SDS011;9834;48.076;11.878;2022-12-18T11:14:22;19.07;;;10.37;;
19396;SDS011;9834;48.076;11.878;2022-12-18T11:16:51;23.33;;;10.70;;
19396;SDS011;9834;48.076;11.878;2022-12-18T11:19:28;23.90;;;12.73;;
19396;SDS011;9834;48.076;11.878;2022-12-18T11:21:59;17.93;;;10.50;;
19396;SDS011;9834;48.076;11.878;2022-12-18T11:24:28;21.33;;;11.03;;
19396;SDS011;9834;48.076;11.878;2022-12-18T11:27:00;20.60;;;9.47;;
19396;SDS011;9834;48.076;11.878;2022-12-18T11:29:32;18.60;;;9.13;;
19396;SDS011;9834;48.076;11.878;2022-12-18T11:35:01;19.07;;;9.77;;
19396;SDS011;9834;48.076;11.878;2022-12-18T11:37:34;17.77;;;10.47;;
19396;SDS011;9834;48.076;11.878;2022-12-18T11:40:03;20.53;;;11.30;;
19396;SDS011;9834;48.076;11.878;2022-12-18T11:42:38;20.13;;;10.00;;
19396;SDS011;9834;48.076;11.878;2022-12-18T11:45:20;23.87;;;10.57;;
19396;SDS011;9834;48.076;11.878;2022-12-18T11:47:58;19.10;;;10.10;;
19396;SDS011;9834;48.076;11.878;2022-12-18T11:50:32;17.47;;;9.67;;
19396;SDS011;9834;48.076;11.878;2022-12-18T11:53:09;16.60;;;9.70;;
19396;SDS011;9834;48.076;11.878;2022-12-18T11:55:39;17.63;;;9.10;;
19396;SDS011;9834;48.076;11.878;2022-12-18T11:58:15;15.57;;;8.53;;
19396;SDS011;9834;48.076;11.878;2022-12-18T12:01:03;19.10;;;9.60;;
19396;SDS011;9834;48.076;11.878;2022-12-18T12:03:45;19.77;;;9.60;;
19396;SDS011;9834;48.076;11.878;2022-12-18T12:06:28;20.10;;;10.20;;
19396;SDS011;9834;48.076;11.878;2022-12-18T12:09:05;19.67;;;10.27;;
19396;SDS011;9834;48.076;11.878;2022-12-18T12:11:43;22.83;;;11.00;;
19396;SDS011;9834;48.076;11.878;2022-12-18T12:14:23;20.67;;;10.43;;
19396;SDS011;9834;48.076;11.878;2022-12-18T12:17:14;16.03;;;9.60;;
19396;SDS011;9834;48.076;11.878;2022-12-18T12:19:49;18.67;;;9.20;;
19396;SDS011;9834;48.076;11.878;2022-12-18T12:22:24;20.13;;;10.53;;
19396;SDS011;9834;48.076;11.878;2022-12-18T12:25:02;21.97;;;9.80;;
19396;SDS011;9834;48.076;11.878;2022-12-18T12:27:47;20.30;;;10.10;;
19396;SDS011;9834;48.076;11.878;2022-12-18T12:30:21;15.80;;;9.33;;
19396;SDS011;9834;48.076;11.878;2022-12-18T12:32:58;15.93;;;8.80;;
19396;SDS011;9834;48.076;11.878;2022-12-18T12:35:38;20.40;;;10.40;;
19396;SDS011;9834;48.076;11.878;2022-12-18T12:38:13;20.37;;;9.70;;
19396;SDS011;9834;48.076;11.878;2022-12-18T12:40:46;22.47;;;10.17;;
19396;SDS011;9834;48.076;11.878;2022-12-18T12:43:22;18.23;;;10.43;;
19396;SDS011;9834;48.076;11.878;2022-12-18T12:45:58;19.73;;;10.70;;
19396;SDS011;9834;48.076;11.878;2022-12-18T12:48:35;20.50;;;10.83;;
19396;SDS011;9834;48.076;11.878;2022-12-18T12:51:09;16.63;;;9.73;;
19396;SDS011;9834;48.076;11.878;2022-12-18T12:53:42;17.77;;;10.23;;
19396;SDS011;9834;48.076;11.878;2022-12-18T12:56:09;19.73;;;11.33;;
19396;SDS011;9834;48.076;11.878;2022-12-18T12:58:43;24.10;;;11.87;;
19396;SDS011;9834;48.076;11.878;2022-12-18T13:01:18;23.97;;;12.90;;
19396;SDS011;9834;48.076;11.878;2022-12-18T13:03:55;25.93;;;13.17;;
19396;SDS011;9834;48.076;11.878;2022-12-18T13:06:32;21.60;;;12.83;;
19396;SDS011;9834;48.076;11.878;2022-12-18T13:09:06;24.90;;;13.80;;
19396;SDS011;9834;48.076;11.878;2022-12-18T13:11:37;29.50;;;13.30;;
19396;SDS011;9834;48.076;11.878;2022-12-18T13:14:24;22.03;;;12.50;;
19396;SDS011;9834;48.076;11.878;2022-12-18T13:17:13;26.00;;;11.90;;
19396;SDS011;9834;48.076;11.878;2022-12-18T13:20:04;25.90;;;13.33;;
19396;SDS011;9834;48.076;11.878;2022-12-18T13:22:37;22.47;;;12.43;;
19396;SDS011;9834;48.076;11.878;2022-12-18T13:28:05;17.83;;;11.30;;
19396;SDS011;9834;48.076;11.878;2022-12-18T13:30:45;27.90;;;13.57;;
19396;SDS011;9834;48.076;11.878;2022-12-18T13:36:28;19.90;;;12.63;;
19396;SDS011;9834;48.076;11.878;2022-12-18T13:45:35;17.07;;;10.77;;
19396;SDS011;9834;48.076;11.878;2022-12-18T13:48:15;18.73;;;11.10;;
19396;SDS011;9834;48.076;11.878;2022-12-18T13:50:57;26.40;;;12.17;;
19396;SDS011;9834;48.076;11.878;2022-12-18T13:53:29;23.43;;;11.60;;
19396;SDS011;9834;48.076;11.878;2022-12-18T13:56:00;21.30;;;10.47;;
19396;SDS011;9834;48.076;11.878;2022-12-18T13:58:28;24.30;;;11.47;;
19396;SDS011;9834;48.076;11.878;2022-12-18T14:00:55;24.40;;;12.70;;
19396;SDS011;9834;48.076;11.878;2022-12-18T14:03:24;19.33;;;11.43;;
19396;SDS011;9834;48.076;11.878;2022-12-18T14:05:53;24.13;;;12.83;;
19396;SDS011;9834;48.076;11.878;2022-12-18T14:08:23;21.83;;;10.97;;
19396;SDS011;9834;48.076;11.878;2022-12-18T14:10:53;21.50;;;11.60;;
19396;SDS011;9834;48.076;11.878;2022-12-18T14:13:21;25.17;;;11.43;;
19396;SDS011;9834;48.076;11.878;2022-12-18T14:15:52;23.63;;;12.30;;
19396;SDS011;9834;48.076;11.878;2022-12-18T14:18:22;22.27;;;11.80;;
19396;SDS011;9834;48.076;11.878;2022-12-18T14:20:52;25.93;;;12.57;;
19396;SDS011;9834;48.076;11.878;2022-12-18T14:23:25;23.67;;;11.33;;
19396;SDS011;9834;48.076;11.878;2022-12-18T14:25:56;20.63;;;11.20;;
19396;SDS011;9834;48.076;11.878;2022-12-18T14:28:23;22.57;;;11.53;;
19396;SDS011;9834;48.076;11.878;2022-12-18T14:30:51;23.40;;;11.93;;
19396;SDS011;9834;48.076;11.878;2022-12-18T14:33:20;22.90;;;12.97;;
19396;SDS011;9834;48.076;11.878;2022-12-18T14:35:52;22.50;;;12.20;;
19396;SDS011;9834;48.076;11.878;2022-12-18T14:38:26;23.80;;;10.17;;
19396;SDS011;9834;48.076;11.878;2022-12-18T14:41:00;24.93;;;10.70;;
19396;SDS011;9834;48.076;11.878;2022-12-18T14:43:29;18.27;;;10.47;;
19396;SDS011;9834;48.076;11.878;2022-12-18T14:45:58;21.63;;;11.47;;
19396;SDS011;9834;48.076;11.878;2022-12-18T14:48:34;26.93;;;12.77;;
19396;SDS011;9834;48.076;11.878;2022-12-18T14:51:04;25.07;;;12.57;;
19396;SDS011;9834;48.076;11.878;2022-12-18T14:53:34;25.90;;;12.73;;
19396;SDS011;9834;48.076;11.878;2022-12-18T14:56:10;20.07;;;10.87;;
19396;SDS011;9834;48.076;11.878;2022-12-18T14:58:44;27.73;;;13.47;;